createdAt,value
2023-04-09T00:01:11.423Z,18.80
2023-04-09T00:03:39.145Z,21.13
2023-04-09T00:06:06.601Z,18.97
2023-04-09T00:08:33.665Z,23.80
2023-04-09T00:11:00.535Z,23.40
2023-04-09T00:13:38.406Z,21.80
2023-04-09T00:16:07.006Z,16.03
2023-04-09T00:18:34.071Z,15.43
2023-04-09T00:21:00.889Z,15.33
2023-04-09T00:23:27.824Z,17.43
2023-04-09T00:25:54.620Z,17.53
2023-04-09T00:28:21.617Z,17.87
2023-04-09T00:30:48.490Z,16.33
2023-04-09T00:33:15.403Z,17.87
2023-04-09T00:35:42.251Z,20.50
2023-04-09T00:38:09.108Z,21.93
2023-04-09T00:40:35.921Z,22.23
2023-04-09T00:43:02.948Z,23.20
2023-04-09T00:45:29.830Z,24.03
2023-04-09T00:47:56.820Z,25.07
2023-04-09T00:50:23.665Z,24.87
2023-04-09T00:52:50.632Z,28.23
2023-04-09T00:55:18.802Z,25.43
2023-04-09T00:57:45.633Z,21.80
2023-04-09T01:00:13.328Z,22.77
2023-04-09T01:02:41.032Z,20.43
2023-04-09T01:05:08.469Z,17.77
2023-04-09T01:08:19.776Z,16.97
2023-04-09T01:11:00.378Z,17.07
2023-04-09T01:13:51.894Z,17.30
2023-04-09T01:16:23.302Z,17.57
2023-04-09T01:19:00.021Z,17.87
2023-04-09T01:21:32.620Z,16.50
2023-04-09T01:24:17.749Z,19.50
2023-04-09T01:27:08.459Z,17.60
2023-04-09T01:29:44.144Z,18.50
2023-04-09T01:32:11.596Z,19.47
2023-04-09T01:34:38.968Z,19.20
2023-04-09T01:37:07.954Z,17.53
2023-04-09T01:39:37.086Z,18.03
2023-04-09T01:42:05.610Z,19.57
2023-04-09T01:44:33.156Z,21.77
2023-04-09T01:47:01.505Z,19.10
2023-04-09T01:49:29.234Z,18.53
2023-04-09T01:51:56.426Z,18.60
2023-04-09T01:54:23.308Z,19.03
2023-04-09T01:56:50.122Z,19.17
2023-04-09T01:59:17.219Z,21.60
2023-04-09T02:01:59.107Z,20.07
2023-04-09T02:04:35.799Z,19.73
2023-04-09T02:07:15.475Z,20.23
2023-04-09T02:09:44.768Z,20.33
2023-04-09T02:12:18.214Z,20.93
2023-04-09T02:14:51.679Z,21.53
2023-04-09T02:17:19.833Z,22.60
2023-04-09T02:19:48.207Z,19.67
2023-04-09T02:22:16.256Z,18.10
2023-04-09T02:24:43.169Z,20.53
2023-04-09T02:27:10.246Z,17.43
2023-04-09T02:29:37.184Z,21.23
2023-04-09T02:32:04.171Z,20.47
2023-04-09T02:34:31.145Z,18.90
2023-04-09T02:36:57.956Z,20.30
2023-04-09T02:39:24.803Z,22.87
2023-04-09T02:41:52.310Z,20.90
2023-04-09T02:44:19.208Z,22.03
2023-04-09T02:46:49.019Z,23.93
2023-04-09T02:49:16.006Z,20.10
2023-04-09T02:51:42.839Z,22.10
2023-04-09T02:54:09.686Z,19.50
2023-04-09T02:56:36.500Z,19.97
2023-04-09T02:59:03.373Z,19.60
2023-04-09T03:01:30.466Z,20.93
2023-04-09T03:03:57.429Z,20.40
2023-04-09T03:06:24.344Z,19.60
2023-04-09T03:08:51.348Z,20.97
2023-04-09T03:11:18.515Z,20.67
2023-04-09T03:13:45.415Z,21.57
2023-04-09T03:16:12.301Z,21.40
2023-04-09T03:18:39.109Z,22.10
2023-04-09T03:21:09.620Z,21.97
2023-04-09T03:23:37.119Z,20.13
2023-04-09T03:26:06.295Z,22.50
2023-04-09T03:28:33.317Z,20.77
2023-04-09T03:31:00.279Z,21.07
2023-04-09T03:33:27.120Z,21.57
2023-04-09T03:35:54.023Z,21.17
2023-04-09T03:38:21.153Z,19.67
2023-04-09T03:40:48.143Z,23.30
2023-04-09T03:43:14.955Z,22.53
2023-04-09T03:45:41.778Z,21.03
2023-04-09T03:48:08.622Z,21.20
2023-04-09T03:50:41.882Z,19.47
2023-04-09T03:53:08.780Z,20.10
2023-04-09T03:55:35.686Z,22.83
2023-04-09T03:58:02.614Z,19.67
2023-04-09T04:00:29.401Z,19.20
2023-04-09T04:02:56.353Z,20.53
2023-04-09T04:05:25.612Z,20.47
2023-04-09T04:07:52.745Z,21.80
2023-04-09T04:10:19.874Z,19.20
2023-04-09T04:12:46.936Z,19.47
2023-04-09T04:15:13.950Z,19.07
2023-04-09T04:17:40.851Z,24.70
2023-04-09T04:20:08.662Z,19.43
2023-04-09T04:22:35.829Z,22.47
2023-04-09T04:25:04.501Z,20.83
2023-04-09T04:27:31.383Z,20.53
2023-04-09T04:30:00.061Z,19.50
2023-04-09T04:32:27.277Z,19.77
2023-04-09T04:34:54.440Z,20.47
2023-04-09T04:37:21.653Z,21.37
2023-04-09T04:39:48.918Z,21.97
2023-04-09T04:42:16.627Z,20.83
2023-04-09T04:44:44.467Z,21.13
2023-04-09T04:47:11.356Z,20.53
2023-04-09T04:49:38.147Z,18.63
2023-04-09T04:52:06.117Z,19.27
2023-04-09T04:54:34.248Z,19.10
2023-04-09T04:57:01.527Z,18.63
2023-04-09T04:59:28.834Z,20.80
2023-04-09T05:01:55.864Z,20.67
2023-04-09T05:04:23.056Z,23.13
2023-04-09T05:06:50.045Z,21.93
2023-04-09T05:09:16.907Z,19.83
2023-04-09T05:11:43.730Z,21.80
2023-04-09T05:14:10.878Z,22.10
2023-04-09T05:16:37.746Z,20.93
2023-04-09T05:19:04.595Z,19.90
2023-04-09T05:21:32.120Z,22.93
2023-04-09T05:23:59.156Z,20.23
2023-04-09T05:26:26.816Z,20.00
2023-04-09T05:28:53.882Z,19.63
2023-04-09T05:31:20.905Z,19.63
2023-04-09T05:33:47.782Z,17.70
2023-04-09T05:36:19.004Z,18.57
2023-04-09T05:38:48.883Z,17.70
2023-04-09T05:41:16.119Z,18.40
2023-04-09T05:43:43.101Z,20.17
2023-04-09T05:46:10.019Z,19.07
2023-04-09T05:48:37.290Z,20.03
2023-04-09T05:51:04.466Z,18.87
2023-04-09T05:53:32.013Z,18.73
2023-04-09T05:55:59.032Z,20.43
2023-04-09T05:58:26.137Z,22.83
2023-04-09T06:00:52.912Z,19.83
2023-04-09T06:03:20.645Z,20.43
2023-04-09T06:05:48.809Z,19.60
2023-04-09T06:08:16.207Z,19.20
2023-04-09T06:10:43.055Z,19.67
2023-04-09T06:13:10.597Z,20.17
2023-04-09T06:15:39.200Z,18.33
2023-04-09T06:18:06.315Z,18.67
2023-04-09T06:20:33.472Z,17.77
2023-04-09T06:23:00.266Z,17.60
2023-04-09T06:25:27.092Z,17.27
2023-04-09T06:27:53.926Z,17.50
2023-04-09T06:30:20.838Z,16.23
2023-04-09T06:32:54.553Z,15.70
2023-04-09T06:35:22.983Z,16.70
2023-04-09T06:37:49.832Z,16.77
2023-04-09T06:40:16.725Z,17.43
2023-04-09T06:42:43.593Z,17.37
2023-04-09T06:45:10.604Z,17.03
2023-04-09T06:47:37.539Z,16.10
2023-04-09T06:50:05.063Z,16.83
2023-04-09T06:52:31.851Z,15.97
2023-04-09T06:54:58.673Z,18.20
2023-04-09T06:57:26.386Z,17.30
2023-04-09T06:59:53.227Z,16.03
2023-04-09T07:02:20.512Z,16.13
2023-04-09T07:04:47.832Z,16.77
2023-04-09T07:07:14.833Z,17.37
2023-04-09T07:09:42.228Z,18.20
2023-04-09T07:12:09.062Z,16.73
2023-04-09T07:14:35.872Z,16.10
2023-04-09T07:17:02.658Z,16.30
2023-04-09T07:19:29.484Z,16.77
2023-04-09T07:21:56.470Z,14.93
2023-04-09T07:24:23.504Z,14.17
2023-04-09T07:26:52.040Z,13.93
2023-04-09T07:29:20.704Z,14.20
2023-04-09T07:31:47.731Z,15.97
2023-04-09T07:34:14.683Z,14.93
2023-04-09T07:36:42.901Z,15.10
2023-04-09T07:39:09.973Z,15.00
2023-04-09T07:41:37.456Z,14.47
2023-04-09T07:44:06.153Z,15.30
2023-04-09T07:46:33.273Z,15.83
2023-04-09T07:49:00.324Z,14.20
2023-04-09T07:51:27.735Z,13.37
2023-04-09T07:53:54.649Z,13.87
2023-04-09T07:56:21.543Z,13.83
2023-04-09T07:58:49.306Z,13.23
2023-04-09T08:01:16.284Z,12.63
2023-04-09T08:03:43.302Z,13.33
2023-04-09T08:06:10.177Z,11.80
2023-04-09T08:08:37.509Z,13.40
2023-04-09T08:11:04.653Z,11.30
2023-04-09T08:13:31.524Z,11.47
2023-04-09T08:16:04.180Z,12.63
2023-04-09T08:18:31.233Z,12.63
2023-04-09T08:20:58.325Z,10.80
2023-04-09T08:23:25.261Z,10.87
2023-04-09T08:25:52.121Z,10.40
2023-04-09T08:28:19.036Z,10.50
2023-04-09T08:30:47.655Z,12.47
2023-04-09T08:33:14.836Z,11.23
2023-04-09T08:35:42.501Z,11.77
2023-04-09T08:38:09.380Z,10.47
2023-04-09T08:40:37.026Z,10.23
2023-04-09T08:43:08.919Z,10.43
2023-04-09T08:45:36.544Z,10.93
2023-04-09T08:48:05.394Z,11.97
2023-04-09T08:50:34.118Z,11.43
2023-04-09T08:53:05.686Z,11.97
2023-04-09T08:55:37.333Z,11.93
2023-04-09T08:58:07.380Z,12.57
2023-04-09T09:00:34.295Z,10.87
2023-04-09T09:03:13.197Z,11.97
2023-04-09T09:05:45.329Z,12.03
2023-04-09T09:08:24.594Z,11.57
2023-04-09T09:10:51.896Z,11.60
2023-04-09T09:13:27.116Z,12.10
2023-04-09T09:16:11.476Z,11.37
2023-04-09T09:18:44.407Z,11.57
2023-04-09T09:21:16.520Z,12.43
2023-04-09T09:23:44.413Z,12.33
2023-04-09T09:26:25.736Z,12.07
2023-04-09T09:28:53.301Z,12.60
2023-04-09T09:31:22.406Z,13.07
2023-04-09T09:33:51.095Z,12.40
2023-04-09T09:36:34.882Z,12.87
2023-04-09T09:39:10.331Z,12.10
2023-04-09T09:41:38.110Z,12.53
2023-04-09T09:44:07.095Z,13.23
2023-04-09T09:46:37.316Z,11.27
2023-04-09T09:49:04.972Z,11.10
2023-04-09T09:51:34.161Z,12.23
2023-04-09T09:54:02.739Z,12.80
2023-04-09T09:56:37.272Z,12.60
2023-04-09T09:59:23.954Z,13.07
2023-04-09T10:02:07.543Z,13.20
2023-04-09T10:04:36.075Z,11.77
2023-04-09T10:07:06.957Z,12.37
2023-04-09T10:09:41.413Z,13.50
2023-04-09T10:12:09.836Z,12.60
2023-04-09T10:14:38.383Z,12.37
2023-04-09T10:17:05.760Z,12.57
2023-04-09T10:19:42.142Z,12.87
2023-04-09T10:22:17.885Z,13.60
2023-04-09T10:24:45.688Z,13.23
2023-04-09T10:27:16.239Z,14.33
2023-04-09T10:29:48.445Z,13.47
2023-04-09T10:32:28.446Z,13.80
2023-04-09T10:35:01.529Z,13.70
2023-04-09T10:37:28.865Z,13.10
2023-04-09T10:39:57.685Z,14.10
2023-04-09T10:42:30.708Z,14.10
2023-04-09T10:45:14.974Z,14.87
2023-04-09T10:47:43.851Z,13.40
2023-04-09T10:50:27.991Z,14.07
2023-04-09T10:52:58.212Z,13.17
2023-04-09T10:55:40.022Z,14.33
2023-04-09T10:58:16.087Z,13.13
2023-04-09T11:00:45.688Z,13.17
2023-04-09T11:03:25.659Z,13.23
2023-04-09T11:06:09.188Z,14.20
2023-04-09T11:08:38.737Z,15.17
2023-04-09T11:11:05.889Z,13.50
2023-04-09T11:13:34.058Z,12.77
2023-04-09T11:16:03.356Z,13.30
2023-04-09T11:18:31.035Z,12.97
2023-04-09T11:21:00.087Z,13.23
2023-04-09T11:23:28.171Z,12.20
2023-04-09T11:25:56.130Z,12.50
2023-04-09T11:28:23.602Z,11.30
2023-04-09T11:30:54.041Z,11.57
2023-04-09T11:33:21.303Z,11.13
2023-04-09T11:35:48.839Z,10.73
2023-04-09T11:38:15.832Z,10.83
2023-04-09T11:40:51.467Z,11.77
2023-04-09T11:43:20.608Z,11.07
2023-04-09T11:45:48.577Z,12.40
2023-04-09T11:48:18.427Z,11.57
2023-04-09T11:50:46.562Z,12.40
2023-04-09T11:53:21.165Z,12.83
2023-04-09T11:55:51.615Z,12.80
2023-04-09T11:58:19.074Z,13.87
2023-04-09T12:00:46.063Z,14.27
2023-04-09T12:03:13.505Z,13.83
2023-04-09T12:05:51.204Z,13.60
2023-04-09T12:08:24.014Z,14.30
2023-04-09T12:10:53.691Z,13.10
2023-04-09T12:13:21.265Z,13.37
2023-04-09T12:15:50.115Z,13.97
2023-04-09T12:18:17.103Z,11.53
2023-04-09T12:20:45.372Z,11.33
2023-04-09T12:23:13.906Z,11.50
2023-04-09T12:25:43.601Z,12.87
2023-04-09T12:28:17.922Z,12.73
2023-04-09T12:30:45.216Z,12.93
2023-04-09T12:33:12.219Z,12.23
2023-04-09T12:35:39.452Z,10.60
2023-04-09T12:38:06.423Z,11.23
2023-04-09T12:40:33.369Z,11.93
2023-04-09T12:43:00.197Z,11.43
2023-04-09T12:45:27.980Z,11.57
2023-04-09T12:47:54.994Z,10.97
2023-04-09T12:50:22.135Z,11.33
2023-04-09T12:52:49.031Z,12.70
2023-04-09T12:55:16.701Z,12.63
2023-04-09T12:57:46.842Z,11.83
2023-04-09T13:00:14.681Z,12.00
2023-04-09T13:02:41.855Z,12.07
2023-04-09T13:05:09.039Z,11.30
2023-04-09T13:07:36.097Z,11.73
2023-04-09T13:10:03.367Z,11.63
2023-04-09T13:12:30.563Z,12.33
2023-04-09T13:14:59.033Z,12.53
2023-04-09T13:17:26.144Z,10.40
2023-04-09T13:19:53.588Z,10.23
2023-04-09T13:22:20.622Z,10.17
2023-04-09T13:24:47.473Z,11.07
2023-04-09T13:27:14.885Z,10.40
2023-04-09T13:29:41.732Z,10.40
2023-04-09T13:32:10.693Z,9.60
2023-04-09T13:34:39.779Z,9.73
2023-04-09T13:37:07.329Z,9.70
2023-04-09T13:39:34.249Z,10.37
2023-04-09T13:42:07.400Z,7.80
2023-04-09T13:44:42.316Z,8.40
2023-04-09T13:47:11.192Z,9.70
2023-04-09T13:49:38.457Z,9.57
2023-04-09T13:52:05.843Z,10.00
2023-04-09T13:54:33.893Z,10.23
2023-04-09T13:57:01.159Z,10.97
2023-04-09T13:59:27.977Z,10.37
2023-04-09T14:01:54.895Z,10.77
2023-04-09T14:04:21.844Z,10.57
2023-04-09T14:06:48.750Z,10.80
2023-04-09T14:09:15.614Z,9.53
2023-04-09T14:11:42.450Z,9.63
2023-04-09T14:14:09.397Z,9.50
2023-04-09T14:16:36.541Z,9.33
2023-04-09T14:19:03.488Z,9.63
2023-04-09T14:21:30.422Z,10.70
2023-04-09T14:23:57.272Z,10.87
2023-04-09T14:26:24.481Z,11.30
2023-04-09T14:28:51.879Z,12.40
2023-04-09T14:31:21.476Z,11.30
2023-04-09T14:33:48.854Z,10.67
2023-04-09T14:36:16.636Z,10.20
2023-04-09T14:38:43.510Z,10.63
2023-04-09T14:41:10.466Z,10.70
2023-04-09T14:43:37.504Z,9.50
2023-04-09T14:46:06.300Z,9.00
2023-04-09T14:48:33.222Z,8.97
2023-04-09T14:51:00.032Z,8.33
2023-04-09T14:53:26.877Z,7.90
2023-04-09T14:55:53.704Z,7.70
2023-04-09T14:58:20.718Z,8.07
2023-04-09T15:00:47.687Z,7.83
2023-04-09T15:03:14.652Z,8.03
2023-04-09T15:05:41.821Z,7.77
2023-04-09T15:08:08.651Z,7.00
2023-04-09T15:10:37.047Z,8.10
2023-04-09T15:13:03.900Z,7.10
2023-04-09T15:15:31.144Z,7.87
2023-04-09T15:17:58.024Z,7.70
2023-04-09T15:20:24.931Z,8.37
2023-04-09T15:22:51.787Z,8.40
2023-04-09T15:25:18.705Z,7.53
2023-04-09T15:27:46.840Z,7.10
2023-04-09T15:30:13.753Z,7.67
2023-04-09T15:32:40.772Z,7.23
2023-04-09T15:35:08.223Z,7.80
2023-04-09T15:37:35.348Z,7.33
2023-04-09T15:40:02.192Z,6.63
2023-04-09T15:42:29.029Z,6.60
2023-04-09T15:44:55.867Z,7.43
2023-04-09T15:47:22.766Z,7.63
2023-04-09T15:49:49.736Z,7.80
2023-04-09T15:52:16.615Z,7.50
2023-04-09T15:54:43.388Z,7.63
2023-04-09T15:57:10.216Z,7.40
2023-04-09T15:59:37.101Z,8.37
2023-04-09T16:02:04.569Z,8.23
2023-04-09T16:04:31.659Z,7.50
2023-04-09T16:06:58.671Z,8.53
2023-04-09T16:09:25.507Z,8.37
2023-04-09T16:11:52.323Z,8.00
2023-04-09T16:14:19.240Z,7.13
2023-04-09T16:16:49.796Z,7.63
2023-04-09T16:19:17.740Z,7.70
2023-04-09T16:21:45.392Z,6.47
2023-04-09T16:24:12.847Z,7.47
2023-04-09T16:26:44.962Z,7.13
2023-04-09T16:29:12.699Z,7.30
2023-04-09T16:31:42.280Z,7.03
2023-04-09T16:34:09.203Z,7.00
2023-04-09T16:36:36.997Z,7.20
2023-04-09T16:39:07.166Z,7.07
2023-04-09T16:41:35.706Z,6.63
2023-04-09T16:44:04.245Z,6.53
2023-04-09T16:46:31.575Z,7.53
2023-04-09T16:48:58.426Z,6.30
2023-04-09T16:51:25.666Z,7.30
2023-04-09T16:53:52.490Z,6.83
2023-04-09T16:56:19.356Z,7.20
2023-04-09T16:58:46.661Z,6.80
2023-04-09T17:01:13.599Z,7.03
2023-04-09T17:03:40.722Z,7.20
2023-04-09T17:06:07.703Z,6.60
2023-04-09T17:08:35.287Z,7.03
2023-04-09T17:11:02.476Z,6.90
2023-04-09T17:13:31.596Z,7.87
2023-04-09T17:15:58.602Z,7.30
2023-04-09T17:18:25.530Z,8.43
2023-04-09T17:20:52.619Z,6.67
2023-04-09T17:23:19.612Z,7.27
2023-04-09T17:25:47.065Z,7.17
2023-04-09T17:28:14.013Z,7.07
2023-04-09T17:30:41.560Z,6.33
2023-04-09T17:33:08.797Z,6.83
2023-04-09T17:35:35.759Z,7.03
2023-04-09T17:38:02.732Z,6.83
2023-04-09T17:40:29.602Z,6.47
2023-04-09T17:42:56.504Z,6.97
2023-04-09T17:45:23.348Z,8.00
2023-04-09T17:47:51.215Z,7.07
2023-04-09T17:50:18.389Z,6.50
2023-04-09T17:52:45.282Z,7.17
2023-04-09T17:55:12.813Z,6.57
2023-04-09T17:57:42.944Z,6.90
2023-04-09T18:00:11.007Z,6.77
2023-04-09T18:02:38.005Z,6.60
2023-04-09T18:05:05.488Z,6.83
2023-04-09T18:07:35.535Z,7.33
2023-04-09T18:10:03.782Z,7.57
2023-04-09T18:12:30.710Z,7.03
2023-04-09T18:14:57.654Z,7.47
2023-04-09T18:17:26.240Z,6.77
2023-04-09T18:19:58.285Z,6.47
2023-04-09T18:22:26.799Z,7.50
2023-04-09T18:24:54.195Z,7.80
2023-04-09T18:27:21.598Z,7.63
2023-04-09T18:29:51.483Z,6.87
2023-04-09T18:32:19.623Z,8.00
2023-04-09T18:34:47.703Z,8.43
2023-04-09T18:37:15.307Z,8.43
2023-04-09T18:39:42.217Z,9.03
2023-04-09T18:42:09.103Z,8.97
2023-04-09T18:44:39.126Z,8.17
2023-04-09T18:47:09.161Z,8.13
2023-04-09T18:49:36.861Z,9.37
2023-04-09T18:52:09.131Z,8.80
2023-04-09T18:54:37.040Z,8.43
2023-04-09T18:57:04.218Z,8.23
2023-04-09T18:59:33.441Z,8.80
2023-04-09T19:02:06.332Z,8.07
2023-04-09T19:04:39.596Z,9.07
2023-04-09T19:07:06.889Z,8.10
2023-04-09T19:09:34.487Z,8.17
2023-04-09T19:12:02.193Z,8.10
2023-04-09T19:14:29.153Z,8.27
2023-04-09T19:16:57.026Z,7.63
2023-04-09T19:19:23.945Z,8.23
2023-04-09T19:21:51.195Z,7.00
2023-04-09T19:24:18.042Z,6.90
2023-04-09T19:26:44.904Z,7.70
2023-04-09T19:29:11.766Z,7.27
2023-04-09T19:31:38.654Z,8.10
2023-04-09T19:34:06.153Z,7.47
2023-04-09T19:36:33.960Z,7.67
2023-04-09T19:39:01.134Z,7.20
2023-04-09T19:41:27.958Z,9.23
2023-04-09T19:43:54.812Z,9.73
2023-04-09T19:46:21.693Z,8.67
2023-04-09T19:48:48.618Z,7.83
2023-04-09T19:51:20.095Z,8.20
2023-04-09T19:53:47.880Z,8.40
2023-04-09T19:56:15.596Z,9.37
2023-04-09T19:58:43.803Z,8.67
2023-04-09T20:01:10.891Z,7.77
2023-04-09T20:03:38.109Z,9.03
2023-04-09T20:06:09.894Z,9.90
2023-04-09T20:08:37.880Z,8.13
2023-04-09T20:11:05.368Z,8.83
2023-04-09T20:13:33.077Z,8.60
2023-04-09T20:16:00.030Z,8.53
2023-04-09T20:18:27.616Z,8.77
2023-04-09T20:20:54.732Z,8.77
2023-04-09T20:23:21.635Z,7.73
2023-04-09T20:25:54.227Z,8.33
2023-04-09T20:28:21.859Z,8.20
2023-04-09T20:30:49.190Z,8.43
2023-04-09T20:33:17.678Z,9.00
2023-04-09T20:35:44.497Z,8.70
2023-04-09T20:38:11.352Z,8.43
2023-04-09T20:40:38.224Z,8.97
2023-04-09T20:43:05.122Z,8.10
2023-04-09T20:45:32.027Z,8.57
2023-04-09T20:47:58.895Z,7.90
2023-04-09T20:50:25.926Z,9.03
2023-04-09T20:52:52.791Z,9.73
2023-04-09T20:55:19.674Z,8.93
2023-04-09T20:57:46.608Z,8.47
2023-04-09T21:00:14.041Z,10.23
2023-04-09T21:02:41.170Z,9.07
2023-04-09T21:05:19.432Z,9.23
2023-04-09T21:07:49.179Z,8.93
2023-04-09T21:10:16.042Z,8.97
2023-04-09T21:12:42.856Z,10.60
2023-04-09T21:15:10.503Z,10.13
2023-04-09T21:17:37.424Z,9.77
2023-04-09T21:20:04.655Z,11.53
2023-04-09T21:22:32.023Z,9.27
2023-04-09T21:24:58.850Z,10.63
2023-04-09T21:27:25.909Z,11.43
2023-04-09T21:29:53.604Z,12.23
2023-04-09T21:32:20.597Z,11.83
2023-04-09T21:34:47.401Z,13.30
2023-04-09T21:37:14.224Z,12.50
2023-04-09T21:39:41.097Z,12.10
2023-04-09T21:42:08.777Z,13.20
2023-04-09T21:44:35.687Z,11.67
2023-04-09T21:47:07.423Z,11.90
2023-04-09T21:49:39.049Z,12.67
2023-04-09T21:52:10.738Z,13.37
2023-04-09T21:54:37.561Z,12.20
2023-04-09T21:57:05.112Z,12.73
2023-04-09T21:59:31.961Z,13.27
2023-04-09T22:01:58.872Z,13.37
2023-04-09T22:04:26.175Z,13.90
2023-04-09T22:06:53.019Z,13.57
2023-04-09T22:09:19.842Z,16.20
2023-04-09T22:11:47.434Z,13.97
2023-04-09T22:14:15.542Z,13.80
2023-04-09T22:16:42.309Z,14.10
2023-04-09T22:19:09.627Z,14.90
2023-04-09T22:21:36.413Z,14.30
2023-04-09T22:24:03.298Z,12.80
2023-04-09T22:26:31.521Z,13.00
2023-04-09T22:28:58.409Z,14.67
2023-04-09T22:31:27.313Z,14.93
2023-04-09T22:33:54.214Z,15.67
2023-04-09T22:36:21.354Z,14.33
2023-04-09T22:38:48.206Z,14.60
2023-04-09T22:41:17.395Z,14.57
2023-04-09T22:43:44.315Z,14.10
2023-04-09T22:46:11.846Z,15.03
2023-04-09T22:48:44.641Z,15.00
2023-04-09T22:51:12.817Z,13.23
2023-04-09T22:53:39.849Z,14.10
2023-04-09T22:56:08.131Z,14.37
2023-04-09T22:58:36.155Z,13.50
2023-04-09T23:01:03.753Z,13.50
2023-04-09T23:03:30.781Z,12.90
2023-04-09T23:05:57.694Z,12.87
2023-04-09T23:08:24.494Z,14.43
2023-04-09T23:10:51.325Z,16.07
2023-04-09T23:13:18.114Z,16.23
2023-04-09T23:15:45.031Z,15.93
2023-04-09T23:18:11.885Z,14.93
2023-04-09T23:20:38.806Z,17.67
2023-04-09T23:23:05.810Z,13.93
2023-04-09T23:25:32.669Z,14.57
2023-04-09T23:27:59.536Z,14.70
2023-04-09T23:30:26.390Z,13.73
2023-04-09T23:32:55.558Z,13.57
2023-04-09T23:35:23.934Z,16.33
2023-04-09T23:37:50.841Z,16.20
2023-04-09T23:40:20.299Z,14.33
2023-04-09T23:42:48.041Z,15.37
2023-04-09T23:45:15.015Z,16.43
2023-04-09T23:47:42.298Z,15.17
2023-04-09T23:50:09.872Z,15.63
2023-04-09T23:52:38.473Z,14.87
2023-04-09T23:55:09.518Z,16.67
2023-04-09T23:57:36.451Z,16.60
